createdAt,value
2018-07-24T00:02:05.942Z,25.10
2018-07-24T00:04:36.752Z,25.10
2018-07-24T00:07:07.758Z,25.00
2018-07-24T00:09:38.480Z,24.90
2018-07-24T00:14:39.095Z,24.90
2018-07-24T00:17:10.111Z,24.90
2018-07-24T00:19:40.689Z,24.90
2018-07-24T00:22:11.369Z,25.00
2018-07-24T00:24:42.049Z,24.90
2018-07-24T00:27:12.533Z,24.80
2018-07-24T00:29:43.430Z,24.90
2018-07-24T00:34:43.820Z,24.80
2018-07-24T00:42:14.529Z,24.70
2018-07-24T00:47:15.040Z,24.70
2018-07-24T00:49:45.788Z,24.60
2018-07-24T00:52:16.416Z,24.60
2018-07-24T00:54:47.114Z,24.60
2018-07-24T00:57:17.577Z,24.60
2018-07-24T00:59:48.271Z,24.60
2018-07-24T01:02:18.973Z,24.50
2018-07-24T01:04:49.436Z,24.60
2018-07-24T01:07:20.054Z,24.50
2018-07-24T01:09:50.572Z,24.50
2018-07-24T01:12:21.237Z,24.50
2018-07-24T01:14:51.768Z,24.60
2018-07-24T01:17:22.597Z,24.50
2018-07-24T01:19:53.146Z,24.50
2018-07-24T01:24:53.676Z,24.60
2018-07-24T01:27:24.208Z,24.60
2018-07-24T01:29:54.831Z,24.60
2018-07-24T01:32:25.349Z,24.60
2018-07-24T01:34:55.961Z,24.60
2018-07-24T01:37:26.590Z,24.60
2018-07-24T01:39:57.207Z,24.50
2018-07-24T01:42:27.945Z,24.60
2018-07-24T01:44:58.540Z,24.60
2018-07-24T01:47:29.133Z,24.70
2018-07-24T01:49:59.685Z,24.70
2018-07-24T01:52:30.279Z,24.60
2018-07-24T01:55:00.904Z,24.70
2018-07-24T01:57:31.555Z,24.70
2018-07-24T02:00:02.165Z,24.70
2018-07-24T02:05:02.635Z,24.70
2018-07-24T02:07:33.400Z,24.70
2018-07-24T02:10:04.085Z,24.80
2018-07-24T02:15:04.632Z,24.70
2018-07-24T02:17:35.670Z,24.70
2018-07-24T02:20:06.865Z,24.60
2018-07-24T02:22:37.363Z,24.60
2018-07-24T02:25:07.975Z,24.50
2018-07-24T02:27:38.542Z,24.60
2018-07-24T02:30:09.556Z,24.60
2018-07-24T02:32:40.075Z,24.70
2018-07-24T02:37:40.452Z,24.70
2018-07-24T02:40:11.139Z,24.60
2018-07-24T02:42:41.833Z,24.70
2018-07-24T02:47:42.176Z,24.70
2018-07-24T02:50:12.684Z,24.60
2018-07-24T02:55:13.044Z,24.40
2018-07-24T03:00:13.578Z,24.50
2018-07-24T03:02:44.106Z,24.40
2018-07-24T03:05:14.576Z,24.30
2018-07-24T03:07:45.075Z,24.30
2018-07-24T03:10:15.752Z,24.20
2018-07-24T03:12:46.300Z,23.90
2018-07-24T03:15:16.836Z,23.90
2018-07-24T03:17:47.433Z,23.80
2018-07-24T03:20:17.964Z,23.90
2018-07-24T03:25:18.433Z,23.70
2018-07-24T03:27:48.885Z,23.70
2018-07-24T03:30:19.425Z,23.70
2018-07-24T03:32:50.212Z,23.70
2018-07-24T03:35:20.994Z,23.80
2018-07-24T03:37:51.697Z,23.80
2018-07-24T03:40:22.335Z,23.80
2018-07-24T03:42:53.092Z,23.80
2018-07-24T03:45:23.668Z,23.80
2018-07-24T03:47:54.247Z,23.80
2018-07-24T03:50:24.858Z,23.70
2018-07-24T03:52:58.341Z,23.70
2018-07-24T03:55:29.372Z,23.70
2018-07-24T03:58:00.381Z,23.70
2018-07-24T04:00:31.064Z,23.60
2018-07-24T04:05:31.430Z,23.50
2018-07-24T04:08:01.991Z,23.50
2018-07-24T04:10:33.099Z,23.50
2018-07-24T04:13:03.721Z,23.50
2018-07-24T04:15:34.355Z,23.50
2018-07-24T04:18:04.933Z,23.60
2018-07-24T04:20:35.473Z,23.60
2018-07-24T04:23:06.286Z,23.70
2018-07-24T04:25:36.837Z,23.70
2018-07-24T04:28:07.423Z,23.70
2018-07-24T04:30:38.451Z,23.80
2018-07-24T04:33:09.014Z,23.70
2018-07-24T04:35:39.557Z,23.70
2018-07-24T04:38:10.272Z,23.70
2018-07-24T04:43:10.974Z,23.80
2018-07-24T04:45:41.697Z,23.90
2018-07-24T04:48:12.193Z,24.00
2018-07-24T04:50:42.716Z,24.20
2018-07-24T04:53:13.232Z,24.20
2018-07-24T04:55:43.670Z,24.30
2018-07-24T04:58:14.264Z,24.30
2018-07-24T05:00:44.770Z,24.20
2018-07-24T05:05:45.541Z,24.20
2018-07-24T05:08:16.189Z,24.20
2018-07-24T05:10:46.962Z,24.10
2018-07-24T05:13:17.561Z,24.30
2018-07-24T05:15:48.115Z,24.20
2018-07-24T05:18:18.755Z,24.40
2018-07-24T05:23:19.235Z,24.40
2018-07-24T05:25:49.752Z,24.40
2018-07-24T05:28:20.237Z,24.30
2018-07-24T05:33:20.839Z,24.30
2018-07-24T05:35:51.279Z,24.30
2018-07-24T05:38:21.982Z,24.10
2018-07-24T05:40:52.672Z,24.10
2018-07-24T05:43:23.508Z,24.10
2018-07-24T05:45:56.258Z,24.10
2018-07-24T05:48:27.341Z,24.00
2018-07-24T05:50:58.148Z,24.00
2018-07-24T05:53:28.893Z,23.90
2018-07-24T06:00:59.371Z,22.60
2018-07-24T06:06:00.049Z,21.30
2018-07-24T06:08:30.878Z,20.60
2018-07-24T06:11:01.786Z,20.50
2018-07-24T06:13:32.296Z,20.20
2018-07-24T06:16:02.826Z,20.00
2018-07-24T06:18:33.554Z,20.00
2018-07-24T06:21:04.040Z,19.80
2018-07-24T06:23:34.622Z,19.70
2018-07-24T06:26:05.161Z,19.60
2018-07-24T06:28:35.796Z,19.50
2018-07-24T06:31:06.468Z,19.60
2018-07-24T06:36:06.700Z,19.70
2018-07-24T06:38:37.522Z,19.70
2018-07-24T06:41:08.037Z,19.70
2018-07-24T06:43:38.548Z,19.70
2018-07-24T06:46:09.091Z,19.70
2018-07-24T06:48:39.651Z,19.80
2018-07-24T06:51:10.402Z,19.80
2018-07-24T06:53:41.022Z,20.00
2018-07-24T06:56:11.686Z,20.10
2018-07-24T06:58:42.319Z,20.00
2018-07-24T07:01:12.841Z,20.00
2018-07-24T07:03:45.656Z,20.00
2018-07-24T07:06:16.588Z,20.00
2018-07-24T07:08:47.108Z,20.10
2018-07-24T07:11:19.950Z,20.10
2018-07-24T07:13:50.623Z,20.20
2018-07-24T07:16:21.308Z,20.10
2018-07-24T07:18:52.512Z,20.20
2018-07-24T07:21:23.701Z,20.20
2018-07-24T07:23:54.475Z,20.20
2018-07-24T07:26:25.391Z,20.40
2018-07-24T07:28:57.858Z,20.50
2018-07-24T07:31:29.973Z,20.60
2018-07-24T07:34:01.875Z,20.70
2018-07-24T07:36:34.493Z,20.80
2018-07-24T07:39:08.206Z,20.80
2018-07-24T07:41:40.411Z,20.90
2018-07-24T07:44:12.129Z,21.00
2018-07-24T07:46:44.490Z,21.10
2018-07-24T07:49:15.309Z,21.20
2018-07-24T07:51:47.996Z,21.10
2018-07-24T07:56:50.187Z,21.40
2018-07-24T07:59:25.095Z,21.60
2018-07-24T08:01:56.506Z,21.60
2018-07-24T08:04:30.994Z,21.70
2018-07-24T08:07:04.186Z,21.80
2018-07-24T08:09:36.045Z,21.90
2018-07-24T08:12:08.455Z,22.00
2018-07-24T08:14:39.085Z,22.10
2018-07-24T08:17:14.254Z,22.20
2018-07-24T08:19:48.725Z,22.30
2018-07-24T08:22:19.512Z,22.50
2018-07-24T08:24:50.901Z,22.50
2018-07-24T08:47:55.153Z,23.20
2018-07-24T08:50:26.304Z,23.90
2018-07-24T08:53:03.400Z,24.00
2018-07-24T08:55:37.070Z,24.30
2018-07-24T08:58:11.471Z,24.50
2018-07-24T09:10:28.225Z,24.70
2018-07-24T09:12:58.905Z,25.50
2018-07-24T09:15:29.979Z,25.70
2018-07-24T09:18:01.725Z,25.60
2018-07-24T09:20:33.763Z,25.70
2018-07-24T09:28:23.790Z,26.20
2018-07-24T09:30:55.872Z,26.50
2018-07-24T09:33:26.732Z,26.50
2018-07-24T09:35:57.506Z,26.30
2018-07-24T09:38:28.422Z,26.20
2018-07-24T09:40:59.110Z,26.30
2018-07-24T09:43:30.004Z,26.40
2018-07-24T09:46:00.639Z,26.40
2018-07-24T09:48:31.225Z,26.50
2018-07-24T09:51:01.776Z,25.90
2018-07-24T09:53:33.926Z,25.90
2018-07-24T09:56:05.071Z,26.10
2018-07-24T10:01:10.596Z,26.30
2018-07-24T10:03:41.270Z,26.30
2018-07-24T10:06:11.974Z,26.30
2018-07-24T10:08:42.945Z,26.40
2018-07-24T10:11:13.919Z,26.40
2018-07-24T10:13:44.757Z,26.40
2018-07-24T10:16:15.581Z,26.60
2018-07-24T10:18:46.379Z,26.70
2018-07-24T10:21:17.119Z,26.90
2018-07-24T10:23:48.426Z,27.30
2018-07-24T10:26:19.849Z,27.40
2018-07-24T10:28:51.274Z,26.90
2018-07-24T10:31:22.242Z,26.80
2018-07-24T10:33:53.701Z,27.30
2018-07-24T10:36:24.887Z,27.20
2018-07-24T10:38:55.598Z,27.00
2018-07-24T10:41:26.793Z,27.40
2018-07-24T10:43:58.456Z,27.50
2018-07-24T10:46:29.506Z,27.50
2018-07-24T10:49:00.058Z,27.70
2018-07-24T10:51:30.641Z,27.90
2018-07-24T10:54:01.521Z,28.00
2018-07-24T10:56:33.225Z,28.30
2018-07-24T10:59:04.513Z,28.40
2018-07-24T11:01:35.387Z,28.30
2018-07-24T11:04:06.956Z,28.60
2018-07-24T11:06:38.298Z,28.50
2018-07-24T11:09:10.268Z,28.70
2018-07-24T11:11:41.860Z,28.60
2018-07-24T11:14:13.223Z,28.90
2018-07-24T11:16:44.718Z,29.10
2018-07-24T11:19:16.939Z,29.30
2018-07-24T11:21:48.197Z,29.30
2018-07-24T11:24:19.420Z,29.30
2018-07-24T11:26:52.288Z,29.50
2018-07-24T11:29:24.050Z,29.60
2018-07-24T11:31:56.981Z,29.50
2018-07-24T11:36:59.443Z,29.10
2018-07-24T11:39:33.303Z,29.50
2018-07-24T11:42:06.081Z,29.90
2018-07-24T11:44:36.843Z,29.60
2018-07-24T11:47:08.479Z,29.60
2018-07-24T11:49:39.380Z,29.20
2018-07-24T11:52:11.192Z,29.40
2018-07-24T11:54:42.242Z,29.30
2018-07-24T11:59:43.627Z,29.50
2018-07-24T12:07:17.285Z,29.60
2018-07-24T12:12:21.993Z,29.70
2018-07-24T12:14:52.718Z,29.80
2018-07-24T12:19:53.336Z,29.90
2018-07-24T12:22:24.027Z,29.80
2018-07-24T12:24:55.026Z,29.60
2018-07-24T12:27:25.587Z,29.80
2018-07-24T12:29:56.212Z,29.60
2018-07-24T12:32:26.767Z,29.60
2018-07-24T12:34:57.370Z,29.80
2018-07-24T12:39:57.849Z,30.00
2018-07-24T12:42:28.354Z,29.90
2018-07-24T12:44:58.948Z,29.40
2018-07-24T12:47:29.415Z,29.10
2018-07-24T12:50:00.198Z,29.00
2018-07-24T12:52:30.749Z,29.10
2018-07-24T12:55:01.488Z,29.50
2018-07-24T12:57:32.220Z,29.20
2018-07-24T13:00:03.130Z,28.80
2018-07-24T13:02:33.823Z,28.70
2018-07-24T13:05:04.434Z,28.40
2018-07-24T13:07:34.988Z,28.10
2018-07-24T13:10:05.710Z,28.10
2018-07-24T13:12:36.554Z,28.00
2018-07-24T13:15:07.634Z,28.00
2018-07-24T13:20:08.319Z,28.00
2018-07-24T13:22:50.496Z,28.00
2018-07-24T13:25:21.063Z,28.00
2018-07-24T13:27:51.907Z,28.00
2018-07-24T13:30:22.334Z,28.10
2018-07-24T13:32:53.199Z,28.10
2018-07-24T13:35:23.750Z,28.10
2018-07-24T13:37:54.306Z,28.00
2018-07-24T13:40:25.025Z,28.10
2018-07-24T13:42:55.601Z,28.30
2018-07-24T13:45:26.286Z,28.30
2018-07-24T13:47:56.849Z,28.40
2018-07-24T13:50:27.749Z,28.50
2018-07-24T13:52:58.247Z,28.70
2018-07-24T13:55:28.628Z,28.70
2018-07-24T13:57:59.146Z,28.70
2018-07-24T14:00:29.878Z,28.40
2018-07-24T14:03:00.561Z,28.40
2018-07-24T14:05:31.162Z,28.30
2018-07-24T14:08:01.558Z,28.30
2018-07-24T14:10:32.061Z,28.30
2018-07-24T14:13:02.747Z,28.10
2018-07-24T14:15:33.342Z,28.10
2018-07-24T14:18:04.333Z,28.00
2018-07-24T14:20:35.018Z,28.10
2018-07-24T14:25:35.457Z,28.30
2018-07-24T14:28:06.255Z,28.30
2018-07-24T14:33:13.074Z,28.10
2018-07-24T14:35:43.598Z,27.90
2018-07-24T14:38:14.131Z,27.80
2018-07-24T14:40:44.623Z,27.70
2018-07-24T14:43:15.203Z,27.80
2018-07-24T14:45:45.736Z,27.80
2018-07-24T14:48:16.367Z,27.90
2018-07-24T14:50:46.956Z,27.90
2018-07-24T14:53:17.540Z,27.90
2018-07-24T14:55:48.120Z,27.80
2018-07-24T14:58:19.024Z,27.80
2018-07-24T15:00:49.510Z,27.80
2018-07-24T15:03:20.305Z,27.70
2018-07-24T15:05:50.838Z,27.60
2018-07-24T15:08:21.437Z,28.60
2018-07-24T15:13:28.641Z,29.40
2018-07-24T15:15:59.126Z,29.90
2018-07-24T15:18:29.805Z,30.20
2018-07-24T15:21:00.638Z,30.70
2018-07-24T15:23:31.270Z,30.50
2018-07-24T15:28:31.776Z,30.00
2018-07-24T15:31:02.723Z,29.90
2018-07-24T15:33:33.866Z,29.50
2018-07-24T15:36:04.650Z,29.40
2018-07-24T15:38:35.175Z,28.90
2018-07-24T15:41:05.730Z,28.50
2018-07-24T15:46:05.966Z,28.60
2018-07-24T15:51:06.360Z,28.30
2018-07-24T15:53:37.120Z,28.30
2018-07-24T15:56:07.686Z,28.30
2018-07-24T15:58:38.482Z,28.30
2018-07-24T16:01:09.130Z,28.50
2018-07-24T16:03:39.714Z,28.50
2018-07-24T16:06:10.207Z,28.00
2018-07-24T16:08:40.827Z,27.70
2018-07-24T16:11:11.605Z,27.40
2018-07-24T16:13:42.217Z,27.20
2018-07-24T16:16:12.786Z,27.10
2018-07-24T16:18:43.581Z,27.30
2018-07-24T16:21:14.639Z,27.20
2018-07-24T16:23:45.193Z,27.10
2018-07-24T16:26:15.762Z,26.80
2018-07-24T16:28:46.830Z,26.60
2018-07-24T16:31:17.510Z,26.40
2018-07-24T16:33:48.620Z,26.30
2018-07-24T16:36:19.431Z,26.20
2018-07-24T16:38:53.035Z,26.10
2018-07-24T16:43:53.253Z,25.80
2018-07-24T16:46:23.701Z,25.80
2018-07-24T16:48:54.247Z,25.80
2018-07-24T16:51:24.773Z,25.70
2018-07-24T16:53:55.331Z,25.60
2018-07-24T16:56:25.888Z,25.60
2018-07-24T16:58:56.450Z,25.50
2018-07-24T17:01:27.063Z,25.30
2018-07-24T17:03:57.993Z,25.30
2018-07-24T17:06:28.934Z,25.20
2018-07-24T17:08:59.451Z,25.20
2018-07-24T17:11:30.346Z,25.10
2018-07-24T17:14:01.674Z,24.90
2018-07-24T17:16:32.181Z,25.00
2018-07-24T17:19:02.795Z,24.90
2018-07-24T17:21:33.273Z,24.90
2018-07-24T17:24:03.822Z,24.80
2018-07-24T17:26:34.456Z,24.80
2018-07-24T17:29:05.333Z,24.70
2018-07-24T17:31:35.894Z,24.70
2018-07-24T17:34:07.037Z,24.60
2018-07-24T17:36:38.006Z,24.60
2018-07-24T17:39:10.130Z,24.50
2018-07-24T17:44:10.589Z,24.50
2018-07-24T17:46:42.456Z,24.50
2018-07-24T17:51:47.505Z,24.40
2018-07-24T17:54:19.891Z,24.40
2018-07-24T17:56:52.254Z,24.20
2018-07-24T18:01:56.246Z,24.10
2018-07-24T18:04:28.603Z,24.00
2018-07-24T18:07:01.086Z,23.90
2018-07-24T18:09:33.499Z,23.80
2018-07-24T18:14:37.020Z,23.70
2018-07-24T18:22:12.306Z,23.60
2018-07-24T18:24:45.043Z,23.50
2018-07-24T18:27:18.133Z,23.50
2018-07-24T18:29:51.557Z,23.40
2018-07-24T18:34:57.279Z,23.20
2018-07-24T18:37:30.657Z,23.20
2018-07-24T18:40:03.930Z,23.30
2018-07-24T18:42:37.346Z,23.30
2018-07-24T18:45:10.694Z,23.30
2018-07-24T18:47:45.824Z,23.20
2018-07-24T18:50:19.268Z,23.20
2018-07-24T18:52:51.982Z,23.20
2018-07-24T18:55:25.415Z,23.20
2018-07-24T18:57:58.882Z,23.10
2018-07-24T19:00:32.429Z,23.10
2018-07-24T19:05:37.811Z,23.00
2018-07-24T19:10:42.921Z,22.80
2018-07-24T19:15:47.800Z,22.90
2018-07-24T19:18:20.280Z,22.90
2018-07-24T19:20:53.223Z,22.90
2018-07-24T19:23:25.955Z,22.90
2018-07-24T19:25:58.693Z,22.90
2018-07-24T19:28:31.315Z,22.90
2018-07-24T19:31:03.780Z,22.90
2018-07-24T19:33:36.167Z,22.80
2018-07-24T19:36:08.988Z,22.70
2018-07-24T19:38:41.377Z,22.60
2018-07-24T19:41:13.828Z,22.50
2018-07-24T19:43:46.447Z,22.50
2018-07-24T19:46:20.118Z,22.30
2018-07-24T19:51:23.748Z,22.20
2018-07-24T19:53:56.430Z,22.20
2018-07-24T19:56:29.086Z,22.10
2018-07-24T19:59:01.734Z,22.00
2018-07-24T20:01:34.693Z,21.90
2018-07-24T20:04:08.392Z,21.90
2018-07-24T20:06:41.152Z,21.90
2018-07-24T20:09:14.106Z,22.00
2018-07-24T20:11:46.617Z,22.00
2018-07-24T20:14:19.117Z,22.00
2018-07-24T20:19:24.222Z,22.10
2018-07-24T20:21:56.768Z,22.10
2018-07-24T20:24:29.290Z,22.10
2018-07-24T20:27:01.692Z,22.10
2018-07-24T20:29:34.233Z,22.00
2018-07-24T20:32:06.642Z,21.90
2018-07-24T20:34:39.369Z,21.80
2018-07-24T20:37:11.976Z,21.80
2018-07-24T20:39:44.615Z,21.70
2018-07-24T20:42:17.335Z,21.70
2018-07-24T20:44:49.849Z,21.70
2018-07-24T20:47:22.351Z,21.70
2018-07-24T20:49:54.857Z,21.70
2018-07-24T20:52:27.436Z,21.70
2018-07-24T20:54:59.783Z,21.60
2018-07-24T20:57:32.569Z,21.70
2018-07-24T21:00:06.085Z,21.70
2018-07-24T21:02:38.932Z,21.70
2018-07-24T21:05:11.663Z,21.60
2018-07-24T21:07:44.362Z,21.60
2018-07-24T21:12:50.647Z,21.70
2018-07-24T21:15:23.155Z,21.70
2018-07-24T21:17:55.146Z,21.70
2018-07-24T21:20:27.545Z,21.70
2018-07-24T21:22:59.591Z,21.70
2018-07-24T21:25:31.331Z,21.70
2018-07-24T21:28:02.665Z,21.60
2018-07-24T21:30:34.971Z,21.50
2018-07-24T21:33:06.697Z,21.50
2018-07-24T21:35:38.293Z,21.40
2018-07-24T21:38:09.324Z,21.30
2018-07-24T21:40:40.112Z,21.20
2018-07-24T21:43:10.946Z,21.20
2018-07-24T21:45:41.545Z,21.20
2018-07-24T21:48:12.362Z,21.10
2018-07-24T21:50:43.067Z,21.10
2018-07-24T21:53:13.843Z,21.10
2018-07-24T21:55:44.546Z,21.10
2018-07-24T21:58:15.697Z,21.10
2018-07-24T22:05:47.087Z,21.20
2018-07-24T22:08:18.284Z,21.20
2018-07-24T22:13:19.429Z,21.20
2018-07-24T22:15:50.267Z,21.20
2018-07-24T22:18:20.994Z,21.10
2018-07-24T22:20:52.191Z,21.10
2018-07-24T22:23:23.062Z,21.10
2018-07-24T22:28:24.960Z,20.90
2018-07-24T22:30:55.598Z,20.90
2018-07-24T22:33:26.677Z,20.90
2018-07-24T22:35:57.318Z,20.90
2018-07-24T22:38:28.112Z,21.00
2018-07-24T22:43:28.851Z,21.00
2018-07-24T22:45:59.479Z,21.00
2018-07-24T22:48:30.316Z,21.00
2018-07-24T22:51:00.858Z,21.00
2018-07-24T22:53:31.586Z,21.00
2018-07-24T22:56:02.513Z,21.00
2018-07-24T22:58:33.590Z,20.90
2018-07-24T23:01:04.150Z,20.90
2018-07-24T23:03:35.109Z,20.90
2018-07-24T23:06:06.481Z,20.80
2018-07-24T23:08:37.626Z,20.70
2018-07-24T23:11:08.115Z,20.70
2018-07-24T23:13:38.840Z,20.60
2018-07-24T23:18:39.438Z,20.50
2018-07-24T23:21:10.132Z,20.50
2018-07-24T23:26:11.285Z,20.40
2018-07-24T23:31:11.929Z,20.50
2018-07-24T23:33:42.443Z,20.40
2018-07-24T23:36:13.195Z,20.40
2018-07-24T23:44:38.183Z,20.30
2018-07-24T23:47:08.829Z,20.30
2018-07-24T23:49:39.766Z,20.20
2018-07-24T23:52:10.648Z,20.20
2018-07-24T23:57:11.319Z,20.30
2018-07-24T23:59:41.902Z,20.30
